createdAt,value
2018-02-06T07:06:17.885Z,18.27
2018-02-06T07:08:47.460Z,16.92
2018-02-06T07:11:19.528Z,20.92
2018-02-06T07:13:49.384Z,18.98
2018-02-06T07:16:19.886Z,18.48
2018-02-06T07:18:53.828Z,16.85
2018-02-06T07:21:23.604Z,17.27
2018-02-06T07:23:53.122Z,21.50
2018-02-06T07:26:28.829Z,17.37
2018-02-06T07:29:06.745Z,15.82
2018-02-06T07:31:36.841Z,17.95
2018-02-06T07:34:08.996Z,16.73
2018-02-06T07:36:38.831Z,18.73
2018-02-06T07:39:12.585Z,17.95
2018-02-06T07:41:42.192Z,20.20
2018-02-06T07:44:12.104Z,22.10
2018-02-06T07:46:43.721Z,20.52
2018-02-06T07:49:13.725Z,19.95
2018-02-06T07:51:45.770Z,29.35
2018-02-06T07:54:17.469Z,26.00
2018-02-06T07:56:50.844Z,20.70
2018-02-06T07:59:20.359Z,19.98
2018-02-06T08:01:50.525Z,16.65
2018-02-06T08:04:21.554Z,16.20
2018-02-06T08:06:51.411Z,21.55
2018-02-06T08:09:23.610Z,18.87
2018-02-06T08:11:55.152Z,18.60
2018-02-06T08:14:25.003Z,18.45
2018-02-06T08:16:58.293Z,18.35
2018-02-06T08:19:29.898Z,18.37
2018-02-06T08:22:00.973Z,21.50
2018-02-06T08:24:31.873Z,19.85
2018-02-06T08:27:02.836Z,18.75
2018-02-06T08:29:44.585Z,17.75
2018-02-06T08:32:17.077Z,17.67
2018-02-06T08:34:48.602Z,17.52
2018-02-06T08:37:18.464Z,17.25
2018-02-06T08:39:51.241Z,19.67
2018-02-06T08:42:20.929Z,18.55
2018-02-06T08:45:03.312Z,18.95
2018-02-06T08:47:33.691Z,19.10
2018-02-06T08:50:03.547Z,20.33
2018-02-06T08:52:34.004Z,16.50
2018-02-06T08:55:07.731Z,22.48
2018-02-06T08:57:37.578Z,20.50
2018-02-06T09:00:07.433Z,17.52
2018-02-06T09:02:40.193Z,17.70
2018-02-06T09:05:14.608Z,20.67
2018-02-06T09:07:44.218Z,19.05
2018-02-06T09:10:18.055Z,20.40
2018-02-06T09:12:49.130Z,18.17
2018-02-06T09:15:31.393Z,25.30
2018-02-06T09:18:01.403Z,17.98
2018-02-06T09:20:34.886Z,19.17
2018-02-06T09:23:05.050Z,19.10
2018-02-06T09:25:36.279Z,21.27
2018-02-06T09:28:09.847Z,20.02
2018-02-06T09:30:40.137Z,18.12
2018-02-06T09:33:12.036Z,19.08
2018-02-06T09:35:43.185Z,20.62
2018-02-06T09:38:14.893Z,19.92
2018-02-06T09:40:45.344Z,18.90
2018-02-06T09:43:30.275Z,16.98
2018-02-06T09:46:00.759Z,20.83
2018-02-06T09:51:40.910Z,19.00
2018-02-06T09:54:25.829Z,21.20
2018-02-06T09:57:08.107Z,20.67
2018-02-06T09:59:41.192Z,18.93
2018-02-06T10:02:17.278Z,19.70
2018-02-06T10:05:16.731Z,19.63
2018-02-06T10:07:47.282Z,21.20
2018-02-06T10:10:24.758Z,19.87
2018-02-06T10:12:57.650Z,19.60
2018-02-06T10:15:28.689Z,20.20
2018-02-06T10:18:05.836Z,20.20
2018-02-06T10:20:36.511Z,20.33
2018-02-06T10:23:07.599Z,22.03
2018-02-06T10:25:37.781Z,19.60
2018-02-06T10:28:09.812Z,22.83
2018-02-06T10:30:43.382Z,21.27
2018-02-06T10:33:16.285Z,25.30
2018-02-06T10:35:51.384Z,26.63
2018-02-06T10:38:25.986Z,21.77
2018-02-06T10:41:03.256Z,20.93
2018-02-06T10:43:40.932Z,19.43
2018-02-06T10:46:12.062Z,24.53
2018-02-06T10:48:43.068Z,21.10
2018-02-06T10:51:26.820Z,20.67
2018-02-06T10:53:57.925Z,19.50
2018-02-06T10:56:27.995Z,20.37
2018-02-06T10:59:12.666Z,19.80
2018-02-06T11:01:44.665Z,19.77
2018-02-06T11:04:28.813Z,21.25
2018-02-06T11:07:00.637Z,22.45
2018-02-06T11:09:30.661Z,23.50
2018-02-06T11:12:05.088Z,22.57
2018-02-06T11:14:50.911Z,20.40
2018-02-06T11:17:35.367Z,22.30
2018-02-06T11:20:09.382Z,19.70
2018-02-06T11:22:47.872Z,21.48
2018-02-06T11:25:23.165Z,24.40
2018-02-06T11:28:00.027Z,23.40
2018-02-06T11:30:37.935Z,23.25
2018-02-06T11:33:27.428Z,21.23
2018-02-06T11:44:54.940Z,22.17
2018-02-06T11:47:28.669Z,18.17
2018-02-06T11:50:05.122Z,20.80
2018-02-06T11:52:49.783Z,22.60
2018-02-06T11:55:35.116Z,23.77
2018-02-06T11:58:06.152Z,23.27
2018-02-06T12:00:49.344Z,23.50
2018-02-06T12:03:37.031Z,22.30
2018-02-06T12:06:33.558Z,22.47
2018-02-06T12:09:24.777Z,23.37
2018-02-06T12:12:02.538Z,28.30
2018-02-06T12:14:40.158Z,23.47
2018-02-06T12:17:25.714Z,20.90
2018-02-06T12:20:08.614Z,22.87
2018-02-06T12:22:41.726Z,22.10
2018-02-06T12:25:14.855Z,31.50
2018-02-06T12:27:46.593Z,26.00
2018-02-06T12:30:29.325Z,24.43
2018-02-06T12:36:09.598Z,21.53
2018-02-06T12:39:10.556Z,24.57
2018-02-06T12:50:40.527Z,23.13
2018-02-06T12:53:24.721Z,20.67
2018-02-06T13:02:25.480Z,24.77
2018-02-06T13:05:14.522Z,23.67
2018-02-06T13:07:49.475Z,24.07
2018-02-06T13:10:22.818Z,23.03
2018-02-06T13:12:52.935Z,22.37
2018-02-06T13:15:24.648Z,24.87
2018-02-06T13:17:54.584Z,21.33
2018-02-06T13:20:26.783Z,23.60
2018-02-06T13:22:57.568Z,24.20
2018-02-06T13:25:38.480Z,24.13
2018-02-06T13:28:25.552Z,21.60
2018-02-06T13:31:00.059Z,25.53
2018-02-06T13:33:34.104Z,24.33
2018-02-06T13:36:14.280Z,25.00
2018-02-06T13:41:54.930Z,34.50
2018-02-06T13:44:32.434Z,22.70
2018-02-06T13:47:17.266Z,25.43
2018-02-06T13:49:52.922Z,22.30
2018-02-06T13:52:24.650Z,26.75
2018-02-06T13:55:00.553Z,27.60
2018-02-06T13:57:36.120Z,24.17
2018-02-06T14:00:45.909Z,24.55
2018-02-06T14:03:35.307Z,24.52
2018-02-06T14:11:33.052Z,21.08
2018-02-06T14:14:05.916Z,25.33
2018-02-06T14:16:42.809Z,24.90
2018-02-06T14:19:22.851Z,22.83
2018-02-06T14:27:50.217Z,25.00
2018-02-06T14:30:33.632Z,22.45
2018-02-06T14:33:05.124Z,35.63
2018-02-06T14:35:37.897Z,23.90
2018-02-06T14:38:13.949Z,20.52
2018-02-06T14:40:48.275Z,24.12
2018-02-06T14:43:22.090Z,24.58
2018-02-06T14:45:51.973Z,24.67
2018-02-06T14:48:21.631Z,25.00
2018-02-06T14:57:14.679Z,29.83
2018-02-06T15:02:29.707Z,26.15
2018-02-06T15:04:59.451Z,24.50
2018-02-06T15:07:29.289Z,27.52
2018-02-06T15:10:07.960Z,27.45
2018-02-06T15:12:54.563Z,28.42
2018-02-06T15:15:29.291Z,26.75
2018-02-06T15:18:04.987Z,32.40
2018-02-06T15:20:35.257Z,28.90
2018-02-06T15:23:04.784Z,23.52
2018-02-06T15:25:36.994Z,30.67
2018-02-06T15:28:11.744Z,27.37
2018-02-06T15:30:46.290Z,30.52
2018-02-06T15:33:18.932Z,26.92
2018-02-06T15:35:52.373Z,37.83
2018-02-06T15:38:22.439Z,32.15
2018-02-06T15:40:55.499Z,31.05
2018-02-06T15:43:30.514Z,30.33
2018-02-06T15:46:01.030Z,32.33
2018-02-06T15:48:33.879Z,27.52
2018-02-06T15:51:07.638Z,30.02
2018-02-06T15:53:39.007Z,30.50
2018-02-06T15:56:10.097Z,30.33
2018-02-06T15:58:40.532Z,27.23
2018-02-06T16:01:12.898Z,28.62
2018-02-06T16:03:42.866Z,31.08
2018-02-06T16:06:27.178Z,32.33
2018-02-06T16:08:57.874Z,36.28
2018-02-06T16:21:13.980Z,29.42
2018-02-06T16:24:10.855Z,29.58
2018-02-06T16:29:50.434Z,32.78
2018-02-06T16:32:21.196Z,30.48
2018-02-06T16:34:54.747Z,29.65
2018-02-06T16:37:25.379Z,33.33
2018-02-06T16:40:01.791Z,30.67
2018-02-06T16:42:42.880Z,32.45
2018-02-06T16:45:26.692Z,27.85
2018-02-06T16:48:04.044Z,32.92
2018-02-06T16:50:41.774Z,32.50
2018-02-06T16:53:23.723Z,29.60
2018-02-06T16:56:09.112Z,29.98
2018-02-06T16:58:40.617Z,33.60
2018-02-06T17:01:14.430Z,28.65
2018-02-06T17:03:49.257Z,36.83
2018-02-06T17:06:26.826Z,32.28
2018-02-06T17:09:00.857Z,29.58
2018-02-06T17:11:33.003Z,32.22
2018-02-06T17:14:05.672Z,32.42
2018-02-06T17:16:49.293Z,34.22
2018-02-06T17:19:38.163Z,32.20
2018-02-06T17:22:21.119Z,28.67
2018-02-06T17:25:12.935Z,33.03
2018-02-06T17:27:46.511Z,35.70
2018-02-06T17:36:27.538Z,32.65
2018-02-06T17:39:13.718Z,34.35
2018-02-06T17:41:52.311Z,31.05
2018-02-06T17:44:30.238Z,31.35
2018-02-06T17:47:08.016Z,32.05
2018-02-06T17:49:53.554Z,32.83
2018-02-06T17:52:52.105Z,31.02
2018-02-06T17:55:27.305Z,32.72
2018-02-06T17:58:10.815Z,32.47
2018-02-06T18:00:48.687Z,32.38
2018-02-06T18:03:19.368Z,35.13
2018-02-06T18:05:51.401Z,31.17
2018-02-06T18:08:25.709Z,45.22
2018-02-06T18:11:00.895Z,35.58
2018-02-06T18:19:56.579Z,31.95
2018-02-06T18:36:02.080Z,43.95
2018-02-06T18:38:59.546Z,31.90
2018-02-06T18:41:33.726Z,29.98
2018-02-06T18:46:52.627Z,53.92
2018-02-06T18:49:26.005Z,32.90
2018-02-06T18:55:06.013Z,33.88
2018-02-06T18:57:38.279Z,32.35
2018-02-06T19:00:34.080Z,33.13
2018-02-06T19:05:49.354Z,35.22
2018-02-06T19:11:47.918Z,34.20
2018-02-06T19:14:18.205Z,32.97
2018-02-06T19:17:30.960Z,34.17
2018-02-06T19:20:32.002Z,29.35
2018-02-06T19:23:22.340Z,36.03
2018-02-06T19:25:53.493Z,35.42
2018-02-06T19:28:25.300Z,36.53
2018-02-06T19:31:00.498Z,34.85
2018-02-06T19:33:41.719Z,36.00
2018-02-06T19:36:13.432Z,36.40
2018-02-06T19:38:56.629Z,34.05
2018-02-06T19:41:55.211Z,35.25
2018-02-06T19:47:47.187Z,34.20
2018-02-06T19:53:46.652Z,36.10
2018-02-06T19:56:16.421Z,37.58
2018-02-06T19:58:48.600Z,32.03
2018-02-06T20:01:18.983Z,49.75
2018-02-06T20:03:49.068Z,31.35
2018-02-06T20:06:20.707Z,37.42
2018-02-06T20:08:51.237Z,37.83
2018-02-06T20:11:25.256Z,37.72
2018-02-06T20:14:05.619Z,36.30
2018-02-06T20:16:51.091Z,34.20
2018-02-06T20:19:27.045Z,34.28
2018-02-06T20:22:26.838Z,34.75
2018-02-06T20:25:09.991Z,35.30
2018-02-06T20:27:55.169Z,32.97
2018-02-06T20:30:45.259Z,34.63
2018-02-06T20:33:16.012Z,37.13
2018-02-06T20:36:19.613Z,38.33
2018-02-06T20:38:54.393Z,37.90
2018-02-06T20:41:24.946Z,31.20
2018-02-06T20:43:57.836Z,36.83
2018-02-06T20:49:28.013Z,34.35
2018-02-06T20:51:58.223Z,38.55
2018-02-06T20:54:43.687Z,33.67
2018-02-06T20:57:19.566Z,35.97
2018-02-06T20:59:52.315Z,35.80
2018-02-06T21:05:25.440Z,43.17
2018-02-06T21:07:58.892Z,44.40
2018-02-06T21:10:28.867Z,41.30
2018-02-06T21:13:00.385Z,40.78
2018-02-06T21:15:43.996Z,41.90
2018-02-06T21:20:58.827Z,41.53
2018-02-06T21:23:29.403Z,50.95
2018-02-06T21:26:00.236Z,41.55
2018-02-06T21:28:30.016Z,41.72
2018-02-06T21:31:02.925Z,48.80
2018-02-06T21:33:38.852Z,59.75
2018-02-06T21:36:19.233Z,44.67
2018-02-06T21:44:39.096Z,41.47
2018-02-06T21:47:09.391Z,94.78
2018-02-06T21:49:39.567Z,52.83
2018-02-06T21:52:09.520Z,48.03
2018-02-06T21:54:39.888Z,43.78
2018-02-06T21:57:18.541Z,50.55
2018-02-06T21:59:57.080Z,50.75
2018-02-06T22:02:30.535Z,44.72
2018-02-06T22:05:13.424Z,41.25
2018-02-06T22:07:44.220Z,47.88
2018-02-06T22:10:19.323Z,55.78
2018-02-06T22:12:50.462Z,43.17
2018-02-06T22:15:21.226Z,50.97
2018-02-06T22:17:54.747Z,50.50
2018-02-06T22:20:42.040Z,44.38
2018-02-06T22:23:15.864Z,43.25
2018-02-06T22:29:28.107Z,43.97
2018-02-06T22:32:05.173Z,38.10
2018-02-06T22:34:58.676Z,49.08
2018-02-06T22:37:39.436Z,44.30
2018-02-06T22:40:10.216Z,41.17
2018-02-06T22:43:03.402Z,44.75
2018-02-06T22:45:33.200Z,45.65
2018-02-06T22:48:04.393Z,43.63
2018-02-06T22:50:34.859Z,51.45
2018-02-06T22:53:05.730Z,44.75
2018-02-06T22:55:38.119Z,44.38
2018-02-06T22:58:08.057Z,46.42
2018-02-06T23:00:38.017Z,44.03
2018-02-06T23:03:09.079Z,55.30
2018-02-06T23:05:40.905Z,44.13
2018-02-06T23:08:11.784Z,44.92
2018-02-06T23:10:42.059Z,111.15
2018-02-06T23:13:11.921Z,48.13
2018-02-06T23:15:42.831Z,46.10
2018-02-06T23:18:15.503Z,46.58
2018-02-06T23:20:53.900Z,49.95
2018-02-06T23:23:40.440Z,44.33
2018-02-06T23:26:11.453Z,38.70
2018-02-06T23:28:41.987Z,43.55
2018-02-06T23:31:11.613Z,46.37
2018-02-06T23:33:42.167Z,53.08
2018-02-06T23:36:18.380Z,47.83
2018-02-06T23:38:49.255Z,40.67
2018-02-06T23:41:22.023Z,50.17
2018-02-06T23:44:02.401Z,44.65
2018-02-06T23:46:44.595Z,46.47
2018-02-06T23:49:18.249Z,45.28
2018-02-06T23:51:53.938Z,48.45
2018-02-06T23:54:28.759Z,42.42
2018-02-06T23:57:07.812Z,40.70
2018-02-06T23:59:43.432Z,36.05
